sensor_id;sensor_type;location;lat;lon;timestamp;P1;durP1;ratioP1;P2;durP2;ratioP2
55202;SDS011;41077;52.956;6.796;2023-05-10T00:00:08;10.85;;;9.77;;
55202;SDS011;41077;52.956;6.796;2023-05-10T00:02:35;14.43;;;11.45;;
55202;SDS011;41077;52.956;6.796;2023-05-10T00:05:01;13.52;;;11.30;;
55202;SDS011;41077;52.956;6.796;2023-05-10T00:07:27;15.43;;;12.98;;
55202;SDS011;41077;52.956;6.796;2023-05-10T00:09:53;15.75;;;12.88;;
55202;SDS011;41077;52.956;6.796;2023-05-10T00:12:19;16.67;;;13.98;;
55202;SDS011;41077;52.956;6.796;2023-05-10T00:14:45;16.33;;;13.13;;
55202;SDS011;41077;52.956;6.796;2023-05-10T00:17:11;16.80;;;12.57;;
55202;SDS011;41077;52.956;6.796;2023-05-10T00:19:37;20.00;;;14.20;;
55202;SDS011;41077;52.956;6.796;2023-05-10T00:22:03;15.50;;;13.80;;
55202;SDS011;41077;52.956;6.796;2023-05-10T00:24:29;16.38;;;13.02;;
55202;SDS011;41077;52.956;6.796;2023-05-10T00:26:55;16.27;;;13.52;;
55202;SDS011;41077;52.956;6.796;2023-05-10T00:29:21;15.35;;;13.40;;
55202;SDS011;41077;52.956;6.796;2023-05-10T00:31:47;18.92;;;13.85;;
55202;SDS011;41077;52.956;6.796;2023-05-10T00:34:13;18.85;;;13.90;;
55202;SDS011;41077;52.956;6.796;2023-05-10T00:36:40;17.40;;;14.10;;
55202;SDS011;41077;52.956;6.796;2023-05-10T00:39:06;15.85;;;14.00;;
55202;SDS011;41077;52.956;6.796;2023-05-10T00:41:32;17.40;;;13.35;;
55202;SDS011;41077;52.956;6.796;2023-05-10T00:43:59;16.00;;;13.85;;
55202;SDS011;41077;52.956;6.796;2023-05-10T00:46:25;16.10;;;13.30;;
55202;SDS011;41077;52.956;6.796;2023-05-10T00:48:52;20.42;;;13.80;;
55202;SDS011;41077;52.956;6.796;2023-05-10T00:51:18;19.20;;;14.43;;
55202;SDS011;41077;52.956;6.796;2023-05-10T00:53:47;18.00;;;14.32;;
55202;SDS011;41077;52.956;6.796;2023-05-10T00:56:14;17.85;;;13.65;;
55202;SDS011;41077;52.956;6.796;2023-05-10T00:58:40;19.10;;;15.13;;
55202;SDS011;41077;52.956;6.796;2023-05-10T01:01:07;19.45;;;15.55;;
55202;SDS011;41077;52.956;6.796;2023-05-10T01:03:34;18.88;;;14.88;;
55202;SDS011;41077;52.956;6.796;2023-05-10T01:06:00;22.98;;;15.82;;
55202;SDS011;41077;52.956;6.796;2023-05-10T01:08:26;18.33;;;15.25;;
55202;SDS011;41077;52.956;6.796;2023-05-10T01:10:52;19.02;;;15.73;;
55202;SDS011;41077;52.956;6.796;2023-05-10T01:13:41;20.63;;;15.63;;
55202;SDS011;41077;52.956;6.796;2023-05-10T01:16:05;21.15;;;15.52;;
55202;SDS011;41077;52.956;6.796;2023-05-10T01:18:36;23.60;;;16.55;;
55202;SDS011;41077;52.956;6.796;2023-05-10T01:26:39;20.85;;;15.55;;
55202;SDS011;41077;52.956;6.796;2023-05-10T01:34:21;22.50;;;15.05;;
55202;SDS011;41077;52.956;6.796;2023-05-10T01:39:16;22.38;;;16.23;;
55202;SDS011;41077;52.956;6.796;2023-05-10T01:41:58;21.85;;;15.25;;
55202;SDS011;41077;52.956;6.796;2023-05-10T01:44:31;20.80;;;15.10;;
55202;SDS011;41077;52.956;6.796;2023-05-10T01:47:02;25.38;;;15.52;;
55202;SDS011;41077;52.956;6.796;2023-05-10T01:49:31;20.60;;;14.93;;
55202;SDS011;41077;52.956;6.796;2023-05-10T01:51:59;21.15;;;14.15;;
55202;SDS011;41077;52.956;6.796;2023-05-10T01:54:26;25.55;;;15.13;;
55202;SDS011;41077;52.956;6.796;2023-05-10T01:56:59;18.15;;;13.55;;
55202;SDS011;41077;52.956;6.796;2023-05-10T01:59:28;19.38;;;13.50;;
55202;SDS011;41077;52.956;6.796;2023-05-10T02:01:55;27.33;;;14.27;;
55202;SDS011;41077;52.956;6.796;2023-05-10T02:04:23;22.88;;;14.65;;
55202;SDS011;41077;52.956;6.796;2023-05-10T02:06:49;21.08;;;15.20;;
55202;SDS011;41077;52.956;6.796;2023-05-10T02:09:17;22.90;;;15.27;;
55202;SDS011;41077;52.956;6.796;2023-05-10T02:11:43;21.95;;;14.30;;
55202;SDS011;41077;52.956;6.796;2023-05-10T02:14:10;19.60;;;14.38;;
55202;SDS011;41077;52.956;6.796;2023-05-10T02:16:37;17.80;;;12.48;;
55202;SDS011;41077;52.956;6.796;2023-05-10T02:19:03;18.02;;;12.73;;
55202;SDS011;41077;52.956;6.796;2023-05-10T02:21:30;18.52;;;12.52;;
55202;SDS011;41077;52.956;6.796;2023-05-10T02:23:57;23.42;;;13.40;;
55202;SDS011;41077;52.956;6.796;2023-05-10T02:26:24;18.73;;;12.52;;
55202;SDS011;41077;52.956;6.796;2023-05-10T02:28:51;20.17;;;12.35;;
55202;SDS011;41077;52.956;6.796;2023-05-10T02:31:18;18.98;;;13.35;;
55202;SDS011;41077;52.956;6.796;2023-05-10T02:33:45;25.27;;;14.45;;
55202;SDS011;41077;52.956;6.796;2023-05-10T02:36:11;22.33;;;13.48;;
55202;SDS011;41077;52.956;6.796;2023-05-10T02:38:38;21.40;;;13.40;;
55202;SDS011;41077;52.956;6.796;2023-05-10T02:41:04;24.08;;;14.57;;
55202;SDS011;41077;52.956;6.796;2023-05-10T02:43:32;25.05;;;13.18;;
55202;SDS011;41077;52.956;6.796;2023-05-10T02:45:59;25.25;;;14.52;;
55202;SDS011;41077;52.956;6.796;2023-05-10T02:48:25;20.88;;;12.95;;
55202;SDS011;41077;52.956;6.796;2023-05-10T02:50:52;20.73;;;13.55;;
55202;SDS011;41077;52.956;6.796;2023-05-10T02:53:21;21.90;;;13.20;;
55202;SDS011;41077;52.956;6.796;2023-05-10T02:55:49;23.15;;;14.50;;
55202;SDS011;41077;52.956;6.796;2023-05-10T02:58:16;22.92;;;13.88;;
55202;SDS011;41077;52.956;6.796;2023-05-10T03:00:44;24.17;;;14.27;;
55202;SDS011;41077;52.956;6.796;2023-05-10T03:03:11;21.80;;;14.45;;
55202;SDS011;41077;52.956;6.796;2023-05-10T03:05:37;22.63;;;15.23;;
55202;SDS011;41077;52.956;6.796;2023-05-10T03:08:03;24.05;;;14.73;;
55202;SDS011;41077;52.956;6.796;2023-05-10T03:10:31;23.00;;;14.70;;
55202;SDS011;41077;52.956;6.796;2023-05-10T03:13:15;25.08;;;15.73;;
55202;SDS011;41077;52.956;6.796;2023-05-10T03:20:46;24.92;;;15.00;;
55202;SDS011;41077;52.956;6.796;2023-05-10T03:23:19;27.75;;;15.20;;
55202;SDS011;41077;52.956;6.796;2023-05-10T03:25:46;23.63;;;15.38;;
55202;SDS011;41077;52.956;6.796;2023-05-10T03:28:14;23.88;;;15.07;;
55202;SDS011;41077;52.956;6.796;2023-05-10T03:30:41;25.10;;;15.13;;
55202;SDS011;41077;52.956;6.796;2023-05-10T03:33:07;30.50;;;16.50;;
55202;SDS011;41077;52.956;6.796;2023-05-10T03:35:33;25.10;;;14.77;;
55202;SDS011;41077;52.956;6.796;2023-05-10T03:37:59;19.42;;;14.00;;
55202;SDS011;41077;52.956;6.796;2023-05-10T03:40:26;21.80;;;14.77;;
55202;SDS011;41077;52.956;6.796;2023-05-10T03:42:54;25.02;;;16.13;;
55202;SDS011;41077;52.956;6.796;2023-05-10T03:45:20;23.23;;;14.75;;
55202;SDS011;41077;52.956;6.796;2023-05-10T03:47:47;27.77;;;15.70;;
55202;SDS011;41077;52.956;6.796;2023-05-10T03:50:13;24.48;;;15.82;;
55202;SDS011;41077;52.956;6.796;2023-05-10T03:52:39;23.00;;;15.63;;
55202;SDS011;41077;52.956;6.796;2023-05-10T03:55:05;23.92;;;15.27;;
55202;SDS011;41077;52.956;6.796;2023-05-10T03:57:31;24.50;;;16.23;;
55202;SDS011;41077;52.956;6.796;2023-05-10T03:59:57;29.65;;;16.73;;
55202;SDS011;41077;52.956;6.796;2023-05-10T04:02:23;22.70;;;15.10;;
55202;SDS011;41077;52.956;6.796;2023-05-10T04:04:49;24.65;;;15.77;;
55202;SDS011;41077;52.956;6.796;2023-05-10T04:07:15;23.92;;;14.98;;
55202;SDS011;41077;52.956;6.796;2023-05-10T04:09:42;22.02;;;15.88;;
55202;SDS011;41077;52.956;6.796;2023-05-10T04:12:09;20.85;;;14.85;;
55202;SDS011;41077;52.956;6.796;2023-05-10T04:14:35;22.13;;;14.30;;
55202;SDS011;41077;52.956;6.796;2023-05-10T04:17:01;22.15;;;14.52;;
55202;SDS011;41077;52.956;6.796;2023-05-10T04:19:30;18.55;;;13.20;;
55202;SDS011;41077;52.956;6.796;2023-05-10T04:21:56;19.08;;;13.85;;
55202;SDS011;41077;52.956;6.796;2023-05-10T04:24:22;20.77;;;12.40;;
55202;SDS011;41077;52.956;6.796;2023-05-10T04:26:48;17.38;;;11.82;;
55202;SDS011;41077;52.956;6.796;2023-05-10T04:29:15;16.70;;;13.35;;
55202;SDS011;41077;52.956;6.796;2023-05-10T04:31:41;14.20;;;11.38;;
55202;SDS011;41077;52.956;6.796;2023-05-10T04:34:07;17.00;;;11.93;;
55202;SDS011;41077;52.956;6.796;2023-05-10T04:36:33;18.85;;;12.45;;
55202;SDS011;41077;52.956;6.796;2023-05-10T04:39:01;18.55;;;12.38;;
55202;SDS011;41077;52.956;6.796;2023-05-10T04:41:28;16.00;;;10.80;;
55202;SDS011;41077;52.956;6.796;2023-05-10T04:43:54;15.48;;;11.55;;
55202;SDS011;41077;52.956;6.796;2023-05-10T04:46:20;14.60;;;11.82;;
55202;SDS011;41077;52.956;6.796;2023-05-10T04:48:46;19.85;;;11.93;;
55202;SDS011;41077;52.956;6.796;2023-05-10T04:51:12;15.18;;;10.98;;
55202;SDS011;41077;52.956;6.796;2023-05-10T04:53:39;18.77;;;12.23;;
55202;SDS011;41077;52.956;6.796;2023-05-10T04:56:05;13.50;;;11.18;;
55202;SDS011;41077;52.956;6.796;2023-05-10T04:58:31;18.52;;;11.98;;
55202;SDS011;41077;52.956;6.796;2023-05-10T05:01:04;15.48;;;11.40;;
55202;SDS011;41077;52.956;6.796;2023-05-10T05:03:30;14.57;;;11.95;;
55202;SDS011;41077;52.956;6.796;2023-05-10T05:05:57;12.07;;;10.77;;
55202;SDS011;41077;52.956;6.796;2023-05-10T05:08:23;12.95;;;11.23;;
55202;SDS011;41077;52.956;6.796;2023-05-10T05:10:49;17.35;;;11.63;;
55202;SDS011;41077;52.956;6.796;2023-05-10T05:13:15;16.92;;;11.50;;
55202;SDS011;41077;52.956;6.796;2023-05-10T05:15:41;12.93;;;10.40;;
55202;SDS011;41077;52.956;6.796;2023-05-10T05:18:07;14.00;;;11.23;;
55202;SDS011;41077;52.956;6.796;2023-05-10T05:20:33;12.15;;;9.98;;
55202;SDS011;41077;52.956;6.796;2023-05-10T05:23:00;13.35;;;10.05;;
55202;SDS011;41077;52.956;6.796;2023-05-10T05:25:26;12.10;;;9.68;;
55202;SDS011;41077;52.956;6.796;2023-05-10T05:27:52;12.20;;;9.63;;
55202;SDS011;41077;52.956;6.796;2023-05-10T05:30:18;12.23;;;9.63;;
55202;SDS011;41077;52.956;6.796;2023-05-10T05:32:44;16.08;;;9.18;;
55202;SDS011;41077;52.956;6.796;2023-05-10T05:35:12;10.88;;;8.45;;
55202;SDS011;41077;52.956;6.796;2023-05-10T05:37:38;10.95;;;9.65;;
55202;SDS011;41077;52.956;6.796;2023-05-10T05:40:04;13.02;;;9.82;;
55202;SDS011;41077;52.956;6.796;2023-05-10T05:42:31;13.68;;;8.23;;
55202;SDS011;41077;52.956;6.796;2023-05-10T05:44:57;12.75;;;9.00;;
55202;SDS011;41077;52.956;6.796;2023-05-10T05:47:23;16.05;;;10.05;;
55202;SDS011;41077;52.956;6.796;2023-05-10T05:49:49;17.48;;;9.82;;
55202;SDS011;41077;52.956;6.796;2023-05-10T05:52:15;12.05;;;9.13;;
55202;SDS011;41077;52.956;6.796;2023-05-10T05:54:41;12.80;;;9.60;;
55202;SDS011;41077;52.956;6.796;2023-05-10T05:57:07;13.65;;;10.13;;
55202;SDS011;41077;52.956;6.796;2023-05-10T05:59:34;14.30;;;10.07;;
55202;SDS011;41077;52.956;6.796;2023-05-10T06:02:00;14.85;;;9.98;;
55202;SDS011;41077;52.956;6.796;2023-05-10T06:04:26;13.07;;;10.25;;
55202;SDS011;41077;52.956;6.796;2023-05-10T06:06:52;18.80;;;11.32;;
55202;SDS011;41077;52.956;6.796;2023-05-10T06:09:18;16.45;;;10.35;;
55202;SDS011;41077;52.956;6.796;2023-05-10T06:11:44;13.75;;;9.88;;
55202;SDS011;41077;52.956;6.796;2023-05-10T06:14:10;12.50;;;9.05;;
55202;SDS011;41077;52.956;6.796;2023-05-10T06:16:36;14.70;;;8.75;;
55202;SDS011;41077;52.956;6.796;2023-05-10T06:19:02;11.73;;;8.80;;
55202;SDS011;41077;52.956;6.796;2023-05-10T06:21:28;12.98;;;8.60;;
55202;SDS011;41077;52.956;6.796;2023-05-10T06:23:55;9.10;;;6.53;;
55202;SDS011;41077;52.956;6.796;2023-05-10T06:26:21;10.48;;;7.28;;
55202;SDS011;41077;52.956;6.796;2023-05-10T06:28:47;9.30;;;6.45;;
55202;SDS011;41077;52.956;6.796;2023-05-10T06:31:13;8.75;;;7.25;;
55202;SDS011;41077;52.956;6.796;2023-05-10T06:33:39;7.97;;;6.53;;
55202;SDS011;41077;52.956;6.796;2023-05-10T06:36:05;6.65;;;5.95;;
55202;SDS011;41077;52.956;6.796;2023-05-10T06:38:31;8.60;;;5.72;;
55202;SDS011;41077;52.956;6.796;2023-05-10T06:40:58;7.60;;;6.40;;
55202;SDS011;41077;52.956;6.796;2023-05-10T06:43:24;6.80;;;6.10;;
55202;SDS011;41077;52.956;6.796;2023-05-10T06:45:51;6.90;;;5.80;;
55202;SDS011;41077;52.956;6.796;2023-05-10T06:48:17;6.95;;;6.25;;
55202;SDS011;41077;52.956;6.796;2023-05-10T06:50:43;6.70;;;6.00;;
55202;SDS011;41077;52.956;6.796;2023-05-10T06:53:09;8.55;;;5.97;;
55202;SDS011;41077;52.956;6.796;2023-05-10T06:55:37;6.53;;;5.70;;
55202;SDS011;41077;52.956;6.796;2023-05-10T06:58:03;7.57;;;6.07;;
55202;SDS011;41077;52.956;6.796;2023-05-10T07:00:29;7.18;;;6.07;;
55202;SDS011;41077;52.956;6.796;2023-05-10T07:02:55;5.90;;;5.30;;
55202;SDS011;41077;52.956;6.796;2023-05-10T07:05:21;5.93;;;5.32;;
55202;SDS011;41077;52.956;6.796;2023-05-10T07:07:47;5.80;;;5.28;;
55202;SDS011;41077;52.956;6.796;2023-05-10T07:10:13;6.00;;;5.10;;
55202;SDS011;41077;52.956;6.796;2023-05-10T07:12:39;5.28;;;4.78;;
55202;SDS011;41077;52.956;6.796;2023-05-10T07:15:06;6.05;;;5.35;;
55202;SDS011;41077;52.956;6.796;2023-05-10T07:17:32;6.65;;;5.10;;
55202;SDS011;41077;52.956;6.796;2023-05-10T07:19:58;6.30;;;4.97;;
55202;SDS011;41077;52.956;6.796;2023-05-10T07:22:25;7.38;;;5.20;;
55202;SDS011;41077;52.956;6.796;2023-05-10T07:24:51;5.47;;;4.32;;
55202;SDS011;41077;52.956;6.796;2023-05-10T07:27:17;6.28;;;3.83;;
55202;SDS011;41077;52.956;6.796;2023-05-10T07:29:43;4.20;;;3.80;;
55202;SDS011;41077;52.956;6.796;2023-05-10T07:32:09;4.28;;;3.78;;
55202;SDS011;41077;52.956;6.796;2023-05-10T07:34:35;5.05;;;3.22;;
55202;SDS011;41077;52.956;6.796;2023-05-10T07:37:01;3.10;;;2.72;;
55202;SDS011;41077;52.956;6.796;2023-05-10T07:39:28;3.65;;;2.58;;
55202;SDS011;41077;52.956;6.796;2023-05-10T07:41:54;4.32;;;2.47;;
55202;SDS011;41077;52.956;6.796;2023-05-10T07:44:20;2.20;;;1.70;;
55202;SDS011;41077;52.956;6.796;2023-05-10T07:46:46;2.10;;;1.92;;
55202;SDS011;41077;52.956;6.796;2023-05-10T07:49:13;2.22;;;2.03;;
55202;SDS011;41077;52.956;6.796;2023-05-10T07:51:39;2.25;;;1.80;;
55202;SDS011;41077;52.956;6.796;2023-05-10T07:54:05;1.50;;;1.38;;
55202;SDS011;41077;52.956;6.796;2023-05-10T07:56:32;1.48;;;1.38;;
55202;SDS011;41077;52.956;6.796;2023-05-10T07:58:59;2.03;;;1.60;;
55202;SDS011;41077;52.956;6.796;2023-05-10T08:01:25;1.63;;;1.23;;
55202;SDS011;41077;52.956;6.796;2023-05-10T08:03:52;1.30;;;1.10;;
55202;SDS011;41077;52.956;6.796;2023-05-10T08:06:18;1.73;;;1.60;;
55202;SDS011;41077;52.956;6.796;2023-05-10T08:08:45;1.95;;;1.60;;
55202;SDS011;41077;52.956;6.796;2023-05-10T08:11:15;2.00;;;1.80;;
55202;SDS011;41077;52.956;6.796;2023-05-10T08:13:41;2.10;;;1.90;;
55202;SDS011;41077;52.956;6.796;2023-05-10T08:16:07;2.22;;;2.03;;
55202;SDS011;41077;52.956;6.796;2023-05-10T08:18:33;2.67;;;2.33;;
55202;SDS011;41077;52.956;6.796;2023-05-10T08:20:59;2.20;;;2.00;;
55202;SDS011;41077;52.956;6.796;2023-05-10T08:23:25;3.42;;;2.53;;
55202;SDS011;41077;52.956;6.796;2023-05-10T08:25:51;3.58;;;2.75;;
55202;SDS011;41077;52.956;6.796;2023-05-10T08:28:18;7.20;;;3.30;;
55202;SDS011;41077;52.956;6.796;2023-05-10T08:30:44;5.18;;;3.38;;
55202;SDS011;41077;52.956;6.796;2023-05-10T08:33:10;3.22;;;2.92;;
55202;SDS011;41077;52.956;6.796;2023-05-10T08:35:36;5.53;;;3.55;;
55202;SDS011;41077;52.956;6.796;2023-05-10T08:38:02;3.70;;;3.30;;
55202;SDS011;41077;52.956;6.796;2023-05-10T08:40:28;4.05;;;3.60;;
55202;SDS011;41077;52.956;6.796;2023-05-10T08:43:15;5.10;;;3.40;;
55202;SDS011;41077;52.956;6.796;2023-05-10T08:45:44;4.07;;;3.55;;
55202;SDS011;41077;52.956;6.796;2023-05-10T08:48:11;3.85;;;3.42;;
55202;SDS011;41077;52.956;6.796;2023-05-10T08:50:38;4.05;;;3.65;;
55202;SDS011;41077;52.956;6.796;2023-05-10T08:53:05;6.32;;;4.68;;
55202;SDS011;41077;52.956;6.796;2023-05-10T08:55:32;7.00;;;3.80;;
55202;SDS011;41077;52.956;6.796;2023-05-10T08:57:59;5.95;;;3.97;;
55202;SDS011;41077;52.956;6.796;2023-05-10T09:00:26;5.03;;;3.88;;
55202;SDS011;41077;52.956;6.796;2023-05-10T09:02:52;7.63;;;4.32;;
55202;SDS011;41077;52.956;6.796;2023-05-10T09:05:18;6.55;;;4.65;;
55202;SDS011;41077;52.956;6.796;2023-05-10T09:07:44;5.10;;;4.57;;
55202;SDS011;41077;52.956;6.796;2023-05-10T09:10:10;7.80;;;6.18;;
55202;SDS011;41077;52.956;6.796;2023-05-10T09:12:37;6.30;;;5.60;;
55202;SDS011;41077;52.956;6.796;2023-05-10T09:15:03;8.18;;;5.85;;
55202;SDS011;41077;52.956;6.796;2023-05-10T09:17:29;7.63;;;5.30;;
55202;SDS011;41077;52.956;6.796;2023-05-10T09:20:02;6.32;;;5.47;;
55202;SDS011;41077;52.956;6.796;2023-05-10T09:22:31;5.93;;;5.03;;
55202;SDS011;41077;52.956;6.796;2023-05-10T09:25:08;6.28;;;5.32;;
55202;SDS011;41077;52.956;6.796;2023-05-10T09:27:34;5.72;;;5.05;;
55202;SDS011;41077;52.956;6.796;2023-05-10T09:30:01;6.45;;;5.05;;
55202;SDS011;41077;52.956;6.796;2023-05-10T09:32:37;5.28;;;4.78;;
55202;SDS011;41077;52.956;6.796;2023-05-10T09:35:09;6.05;;;4.72;;
55202;SDS011;41077;52.956;6.796;2023-05-10T09:37:36;5.65;;;5.03;;
55202;SDS011;41077;52.956;6.796;2023-05-10T09:40:05;5.68;;;4.68;;
55202;SDS011;41077;52.956;6.796;2023-05-10T09:42:33;5.97;;;4.35;;
55202;SDS011;41077;52.956;6.796;2023-05-10T09:45:02;5.28;;;4.78;;
55202;SDS011;41077;52.956;6.796;2023-05-10T09:47:29;5.25;;;4.45;;
55202;SDS011;41077;52.956;6.796;2023-05-10T09:49:57;4.07;;;3.60;;
55202;SDS011;41077;52.956;6.796;2023-05-10T09:52:35;4.88;;;3.20;;
55202;SDS011;41077;52.956;6.796;2023-05-10T09:55:11;5.47;;;3.92;;
55202;SDS011;41077;52.956;6.796;2023-05-10T09:57:37;4.65;;;4.00;;
55202;SDS011;41077;52.956;6.796;2023-05-10T10:00:05;4.43;;;3.75;;
55202;SDS011;41077;52.956;6.796;2023-05-10T10:02:35;7.28;;;4.95;;
55202;SDS011;41077;52.956;6.796;2023-05-10T10:05:01;4.57;;;3.97;;
55202;SDS011;41077;52.956;6.796;2023-05-10T10:07:30;5.13;;;4.05;;
55202;SDS011;41077;52.956;6.796;2023-05-10T10:09:57;5.57;;;4.70;;
55202;SDS011;41077;52.956;6.796;2023-05-10T10:12:24;6.22;;;5.63;;
55202;SDS011;41077;52.956;6.796;2023-05-10T10:14:51;7.25;;;6.07;;
55202;SDS011;41077;52.956;6.796;2023-05-10T10:17:18;7.07;;;5.63;;
55202;SDS011;41077;52.956;6.796;2023-05-10T10:19:45;7.03;;;6.32;;
55202;SDS011;41077;52.956;6.796;2023-05-10T10:22:12;8.80;;;6.47;;
55202;SDS011;41077;52.956;6.796;2023-05-10T10:24:38;9.10;;;6.72;;
55202;SDS011;41077;52.956;6.796;2023-05-10T10:27:19;7.82;;;6.47;;
55202;SDS011;41077;52.956;6.796;2023-05-10T10:32:30;6.45;;;5.68;;
55202;SDS011;41077;52.956;6.796;2023-05-10T10:34:58;5.70;;;5.10;;
55202;SDS011;41077;52.956;6.796;2023-05-10T10:37:40;6.47;;;5.60;;
55202;SDS011;41077;52.956;6.796;2023-05-10T10:40:26;9.40;;;6.20;;
55202;SDS011;41077;52.956;6.796;2023-05-10T10:42:52;9.70;;;6.93;;
55202;SDS011;41077;52.956;6.796;2023-05-10T10:45:19;9.98;;;6.68;;
55202;SDS011;41077;52.956;6.796;2023-05-10T10:47:46;6.40;;;5.65;;
55202;SDS011;41077;52.956;6.796;2023-05-10T10:50:12;7.53;;;6.15;;
55202;SDS011;41077;52.956;6.796;2023-05-10T10:52:44;6.93;;;6.22;;
55202;SDS011;41077;52.956;6.796;2023-05-10T10:55:11;7.43;;;6.72;;
55202;SDS011;41077;52.956;6.796;2023-05-10T11:00:23;9.25;;;7.57;;
55202;SDS011;41077;52.956;6.796;2023-05-10T11:07:55;8.32;;;7.07;;
55202;SDS011;41077;52.956;6.796;2023-05-10T11:10:21;8.13;;;7.07;;
55202;SDS011;41077;52.956;6.796;2023-05-10T11:12:51;12.02;;;8.30;;
55202;SDS011;41077;52.956;6.796;2023-05-10T11:15:18;10.98;;;7.32;;
55202;SDS011;41077;52.956;6.796;2023-05-10T11:17:45;9.68;;;7.10;;
55202;SDS011;41077;52.956;6.796;2023-05-10T11:20:15;9.38;;;6.85;;
55202;SDS011;41077;52.956;6.796;2023-05-10T11:25:17;8.82;;;6.93;;
55202;SDS011;41077;52.956;6.796;2023-05-10T11:27:43;9.05;;;6.78;;
55202;SDS011;41077;52.956;6.796;2023-05-10T11:30:10;10.65;;;6.65;;
55202;SDS011;41077;52.956;6.796;2023-05-10T11:32:39;9.68;;;6.32;;
55202;SDS011;41077;52.956;6.796;2023-05-10T11:35:09;8.93;;;6.78;;
55202;SDS011;41077;52.956;6.796;2023-05-10T11:37:35;7.70;;;6.03;;
55202;SDS011;41077;52.956;6.796;2023-05-10T11:40:02;10.60;;;6.88;;
55202;SDS011;41077;52.956;6.796;2023-05-10T11:42:28;8.57;;;6.70;;
55202;SDS011;41077;52.956;6.796;2023-05-10T11:44:55;11.77;;;6.70;;
55202;SDS011;41077;52.956;6.796;2023-05-10T11:47:21;8.50;;;7.20;;
55202;SDS011;41077;52.956;6.796;2023-05-10T11:49:47;10.13;;;6.97;;
55202;SDS011;41077;52.956;6.796;2023-05-10T11:52:13;8.75;;;6.50;;
55202;SDS011;41077;52.956;6.796;2023-05-10T11:55:12;10.55;;;8.20;;
55202;SDS011;41077;52.956;6.796;2023-05-10T11:57:30;11.65;;;7.30;;
55202;SDS011;41077;52.956;6.796;2023-05-10T11:59:57;11.95;;;6.40;;
55202;SDS011;41077;52.956;6.796;2023-05-10T12:02:23;8.82;;;6.53;;
55202;SDS011;41077;52.956;6.796;2023-05-10T12:04:49;8.60;;;6.63;;
55202;SDS011;41077;52.956;6.796;2023-05-10T12:07:16;13.38;;;7.03;;
55202;SDS011;41077;52.956;6.796;2023-05-10T12:10:01;10.95;;;7.32;;
55202;SDS011;41077;52.956;6.796;2023-05-10T12:12:43;9.30;;;6.95;;
55202;SDS011;41077;52.956;6.796;2023-05-10T12:15:18;9.27;;;6.20;;
55202;SDS011;41077;52.956;6.796;2023-05-10T12:17:45;11.75;;;7.82;;
55202;SDS011;41077;52.956;6.796;2023-05-10T12:20:14;8.10;;;6.82;;
55202;SDS011;41077;52.956;6.796;2023-05-10T12:22:46;7.53;;;6.63;;
55202;SDS011;41077;52.956;6.796;2023-05-10T12:25:14;10.27;;;6.47;;
55202;SDS011;41077;52.956;6.796;2023-05-10T12:27:40;13.63;;;7.65;;
55202;SDS011;41077;52.956;6.796;2023-05-10T12:30:06;9.10;;;6.05;;
55202;SDS011;41077;52.956;6.796;2023-05-10T12:32:39;10.07;;;7.13;;
55202;SDS011;41077;52.956;6.796;2023-05-10T12:35:09;11.25;;;6.90;;
55202;SDS011;41077;52.956;6.796;2023-05-10T12:37:35;10.23;;;6.85;;
55202;SDS011;41077;52.956;6.796;2023-05-10T12:40:05;9.73;;;6.78;;
55202;SDS011;41077;52.956;6.796;2023-05-10T12:42:33;10.80;;;7.20;;
55202;SDS011;41077;52.956;6.796;2023-05-10T12:45:00;9.50;;;6.68;;
55202;SDS011;41077;52.956;6.796;2023-05-10T12:47:27;9.95;;;7.47;;
55202;SDS011;41077;52.956;6.796;2023-05-10T12:49:53;9.02;;;7.40;;
55202;SDS011;41077;52.956;6.796;2023-05-10T12:52:18;9.70;;;7.07;;
55202;SDS011;41077;52.956;6.796;2023-05-10T12:54:44;7.93;;;6.30;;
55202;SDS011;41077;52.956;6.796;2023-05-10T12:57:10;11.25;;;6.53;;
55202;SDS011;41077;52.956;6.796;2023-05-10T12:59:36;9.93;;;7.03;;
55202;SDS011;41077;52.956;6.796;2023-05-10T13:02:02;8.45;;;6.85;;
55202;SDS011;41077;52.956;6.796;2023-05-10T13:04:27;9.32;;;6.30;;
55202;SDS011;41077;52.956;6.796;2023-05-10T13:06:53;9.27;;;5.85;;
55202;SDS011;41077;52.956;6.796;2023-05-10T13:09:23;9.65;;;5.60;;
55202;SDS011;41077;52.956;6.796;2023-05-10T13:11:50;7.18;;;5.45;;
55202;SDS011;41077;52.956;6.796;2023-05-10T13:14:16;7.95;;;4.30;;
55202;SDS011;41077;52.956;6.796;2023-05-10T13:16:41;9.43;;;4.93;;
55202;SDS011;41077;52.956;6.796;2023-05-10T13:19:07;4.90;;;4.38;;
55202;SDS011;41077;52.956;6.796;2023-05-10T13:21:33;7.97;;;4.95;;
55202;SDS011;41077;52.956;6.796;2023-05-10T13:23:59;7.20;;;5.32;;
55202;SDS011;41077;52.956;6.796;2023-05-10T13:26:26;8.38;;;4.57;;
55202;SDS011;41077;52.956;6.796;2023-05-10T13:28:52;9.65;;;5.45;;
55202;SDS011;41077;52.956;6.796;2023-05-10T13:31:20;9.25;;;5.28;;
55202;SDS011;41077;52.956;6.796;2023-05-10T13:33:46;7.38;;;5.22;;
55202;SDS011;41077;52.956;6.796;2023-05-10T13:36:11;6.68;;;5.38;;
55202;SDS011;41077;52.956;6.796;2023-05-10T13:38:37;8.10;;;5.82;;
55202;SDS011;41077;52.956;6.796;2023-05-10T13:41:03;8.18;;;6.00;;
55202;SDS011;41077;52.956;6.796;2023-05-10T13:43:29;8.77;;;6.60;;
55202;SDS011;41077;52.956;6.796;2023-05-10T13:45:55;14.65;;;7.57;;
55202;SDS011;41077;52.956;6.796;2023-05-10T13:48:20;11.20;;;7.30;;
55202;SDS011;41077;52.956;6.796;2023-05-10T13:50:46;9.02;;;7.50;;
55202;SDS011;41077;52.956;6.796;2023-05-10T13:53:12;11.55;;;7.88;;
55202;SDS011;41077;52.956;6.796;2023-05-10T13:55:38;10.77;;;8.07;;
55202;SDS011;41077;52.956;6.796;2023-05-10T13:58:03;10.77;;;8.02;;
55202;SDS011;41077;52.956;6.796;2023-05-10T14:00:29;11.52;;;7.90;;
55202;SDS011;41077;52.956;6.796;2023-05-10T14:02:55;12.98;;;8.57;;
55202;SDS011;41077;52.956;6.796;2023-05-10T14:05:21;12.35;;;8.45;;
55202;SDS011;41077;52.956;6.796;2023-05-10T14:07:48;13.80;;;7.88;;
55202;SDS011;41077;52.956;6.796;2023-05-10T14:10:13;12.77;;;8.77;;
55202;SDS011;41077;52.956;6.796;2023-05-10T14:12:39;12.88;;;7.97;;
55202;SDS011;41077;52.956;6.796;2023-05-10T14:15:05;10.88;;;7.70;;
55202;SDS011;41077;52.956;6.796;2023-05-10T14:17:31;10.30;;;7.93;;
55202;SDS011;41077;52.956;6.796;2023-05-10T14:19:57;10.75;;;8.25;;
55202;SDS011;41077;52.956;6.796;2023-05-10T14:22:23;11.95;;;7.65;;
55202;SDS011;41077;52.956;6.796;2023-05-10T14:24:49;10.57;;;6.80;;
55202;SDS011;41077;52.956;6.796;2023-05-10T14:27:15;13.02;;;8.02;;
55202;SDS011;41077;52.956;6.796;2023-05-10T14:29:41;10.15;;;7.70;;
55202;SDS011;41077;52.956;6.796;2023-05-10T14:32:07;9.95;;;7.07;;
55202;SDS011;41077;52.956;6.796;2023-05-10T14:34:33;9.07;;;7.32;;
55202;SDS011;41077;52.956;6.796;2023-05-10T14:36:58;11.80;;;7.60;;
55202;SDS011;41077;52.956;6.796;2023-05-10T14:39:24;9.07;;;6.75;;
55202;SDS011;41077;52.956;6.796;2023-05-10T14:41:50;11.68;;;7.75;;
55202;SDS011;41077;52.956;6.796;2023-05-10T14:44:17;9.15;;;6.97;;
55202;SDS011;41077;52.956;6.796;2023-05-10T14:46:42;10.95;;;7.80;;
55202;SDS011;41077;52.956;6.796;2023-05-10T14:49:08;15.38;;;7.90;;
55202;SDS011;41077;52.956;6.796;2023-05-10T14:51:34;10.52;;;7.82;;
55202;SDS011;41077;52.956;6.796;2023-05-10T14:54:01;16.80;;;8.93;;
55202;SDS011;41077;52.956;6.796;2023-05-10T14:56:27;11.48;;;7.63;;
55202;SDS011;41077;52.956;6.796;2023-05-10T14:58:53;9.63;;;7.45;;
55202;SDS011;41077;52.956;6.796;2023-05-10T15:01:19;10.80;;;7.95;;
55202;SDS011;41077;52.956;6.796;2023-05-10T15:03:44;10.70;;;7.97;;
55202;SDS011;41077;52.956;6.796;2023-05-10T15:06:10;9.98;;;7.15;;